createdAt,value
2017-03-11T00:00:10.665Z,63.89
2017-03-11T00:00:51.415Z,63.89
2017-03-11T00:01:32.185Z,63.89
2017-03-11T00:02:12.745Z,64.37
2017-03-11T00:02:53.439Z,64.56
2017-03-11T00:03:34.236Z,63.99
2017-03-11T00:04:14.927Z,64.27
2017-03-11T00:04:55.552Z,64.56
2017-03-11T00:05:36.214Z,64.08
2017-03-11T00:06:16.882Z,64.46
2017-03-11T00:06:57.571Z,63.6
2017-03-11T00:07:38.315Z,63.79
2017-03-11T00:08:18.931Z,63.99
2017-03-11T00:08:59.588Z,63.89
2017-03-11T00:09:40.246Z,63.89
2017-03-11T00:10:20.925Z,63.89
2017-03-11T00:11:01.548Z,63.7
2017-03-11T00:11:42.186Z,63.99
2017-03-11T00:12:22.930Z,64.27
2017-03-11T00:13:03.506Z,63.89
2017-03-11T00:13:44.163Z,63.79
2017-03-11T00:14:24.874Z,64.08
2017-03-11T00:15:05.504Z,63.79
2017-03-11T00:15:46.175Z,63.79
2017-03-11T00:16:26.828Z,63.99
2017-03-11T00:17:07.524Z,63.89
2017-03-11T00:17:48.282Z,63.89
2017-03-11T00:18:28.945Z,63.79
2017-03-11T00:19:09.955Z,63.7
2017-03-11T00:19:50.608Z,64.08
2017-03-11T00:20:31.302Z,63.89
2017-03-11T00:21:12.102Z,63.79
2017-03-11T00:21:52.857Z,63.99
2017-03-11T00:22:33.510Z,63.6
2017-03-11T00:23:14.185Z,63.99
2017-03-11T00:23:55.075Z,63.99
2017-03-11T00:24:35.784Z,63.51
2017-03-11T00:25:16.533Z,63.89
2017-03-11T00:25:57.269Z,64.18
2017-03-11T00:26:37.937Z,64.18
2017-03-11T00:27:18.670Z,64.08
2017-03-11T00:27:59.516Z,64.08
2017-03-11T00:28:40.267Z,64.27
2017-03-11T00:29:20.901Z,64.08
2017-03-11T00:30:01.656Z,64.08
2017-03-11T00:30:42.357Z,63.89
2017-03-11T00:31:23.033Z,63.99
2017-03-11T00:32:03.645Z,63.7
2017-03-11T00:32:44.374Z,63.89
2017-03-11T00:33:25.246Z,64.08
2017-03-11T00:34:05.861Z,63.79
2017-03-11T00:34:46.514Z,64.27
2017-03-11T00:35:27.203Z,63.99
2017-03-11T00:36:07.902Z,64.08
2017-03-11T00:36:48.495Z,64.37
2017-03-11T00:37:29.237Z,64.46
2017-03-11T00:38:09.909Z,64.27
2017-03-11T00:38:50.581Z,64.37
2017-03-11T00:39:31.289Z,64.37
2017-03-11T00:40:11.960Z,64.27
2017-03-11T00:40:52.602Z,64.08
2017-03-11T00:41:33.286Z,64.37
2017-03-11T00:42:13.955Z,64.18
2017-03-11T00:42:54.707Z,64.46
2017-03-11T00:43:35.332Z,64.46
2017-03-11T00:44:15.963Z,64.27
2017-03-11T00:44:56.625Z,64.37
2017-03-11T00:45:37.387Z,64.46
2017-03-11T00:46:18.060Z,64.94
2017-03-11T00:46:58.781Z,65.13
2017-03-11T00:47:39.494Z,64.94
2017-03-11T00:48:20.223Z,64.9
2017-03-11T00:49:01.007Z,64.75
2017-03-11T00:49:41.612Z,65.41
2017-03-11T00:50:22.324Z,65.13
2017-03-11T00:51:03.046Z,65.51
2017-03-11T00:51:43.719Z,65.41
2017-03-11T00:52:24.321Z,65.13
2017-03-11T00:53:04.973Z,64.75
2017-03-11T00:53:45.701Z,64.84
2017-03-11T00:54:26.338Z,64.94
2017-03-11T00:55:06.984Z,64.84
2017-03-11T00:55:47.643Z,64.94
2017-03-11T00:56:28.399Z,65.03
2017-03-11T00:57:08.994Z,64.84
2017-03-11T00:57:49.696Z,64.94
2017-03-11T00:58:30.358Z,64.84
2017-03-11T00:59:11.012Z,64.75
2017-03-11T00:59:51.753Z,64.94
2017-03-11T01:00:32.462Z,64.65
2017-03-11T01:01:13.175Z,64.75
2017-03-11T01:01:53.852Z,64.75
2017-03-11T01:02:34.506Z,64.84
2017-03-11T01:03:15.204Z,64.84
2017-03-11T01:03:55.903Z,65.03
2017-03-11T01:04:36.567Z,65.13
2017-03-11T01:05:17.216Z,65.41
2017-03-11T01:05:57.874Z,65.51
2017-03-11T01:06:38.585Z,65.38
2017-03-11T01:07:19.244Z,65.13
2017-03-11T01:07:59.969Z,65.51
2017-03-11T01:08:40.696Z,65.41
2017-03-11T01:09:21.456Z,65.6
2017-03-11T01:10:02.129Z,65.7
2017-03-11T01:10:43.013Z,65.8
2017-03-11T01:11:23.647Z,65.32
2017-03-11T01:12:04.490Z,65.6
2017-03-11T01:12:45.090Z,65.57
2017-03-11T01:13:25.786Z,65.38
2017-03-11T01:14:06.467Z,65.28
2017-03-11T01:14:47.156Z,65.09
2017-03-11T01:15:27.916Z,65.41
2017-03-11T01:16:08.579Z,65.28
2017-03-11T01:16:49.282Z,65.19
2017-03-11T01:17:29.956Z,65.19
2017-03-11T01:18:10.577Z,65.57
2017-03-11T01:18:51.354Z,65.47
2017-03-11T01:19:32.121Z,65.47
2017-03-11T01:20:12.763Z,65.57
2017-03-11T01:20:53.475Z,65.47
2017-03-11T01:21:34.061Z,65.67
2017-03-11T01:22:14.772Z,65.47
2017-03-11T01:22:55.369Z,65.76
2017-03-11T01:23:36.058Z,65.76
2017-03-11T01:24:16.949Z,66.05
2017-03-11T01:24:57.531Z,65.57
2017-03-11T01:25:38.229Z,65.47
2017-03-11T01:26:18.873Z,65.47
2017-03-11T01:26:59.668Z,65.76
2017-03-11T01:27:40.311Z,65.47
2017-03-11T01:28:20.976Z,65.57
2017-03-11T01:29:01.835Z,65.86
2017-03-11T01:29:42.394Z,65.76
2017-03-11T01:30:23.071Z,65.95
2017-03-11T01:31:03.728Z,65.86
2017-03-11T01:31:44.409Z,65.57
2017-03-11T01:32:25.069Z,65.47
2017-03-11T01:33:05.785Z,65.95
2017-03-11T01:33:46.614Z,65.95
2017-03-11T01:34:27.234Z,65.95
2017-03-11T01:35:07.927Z,66.24
2017-03-11T01:35:48.818Z,66.14
2017-03-11T01:36:29.507Z,66.42
2017-03-11T01:37:10.204Z,66.24
2017-03-11T01:37:50.857Z,66.24
2017-03-11T01:38:31.524Z,66.24
2017-03-11T01:39:12.206Z,66.05
2017-03-11T01:39:52.901Z,66.14
2017-03-11T01:40:33.530Z,66.24
2017-03-11T01:41:14.272Z,65.95
2017-03-11T01:41:54.890Z,66.14
2017-03-11T01:42:35.611Z,66.24
2017-03-11T01:43:16.235Z,66.14
2017-03-11T01:43:56.978Z,66.61
2017-03-11T01:44:37.550Z,66.52
2017-03-11T01:45:18.237Z,66.71
2017-03-11T01:45:58.850Z,66.61
2017-03-11T01:46:39.582Z,66.52
2017-03-11T01:47:20.280Z,66.42
2017-03-11T01:48:00.940Z,66.8
2017-03-11T01:48:41.635Z,67.19
2017-03-11T01:49:22.339Z,66.9
2017-03-11T01:50:02.966Z,67.19
2017-03-11T01:50:43.610Z,67
2017-03-11T01:51:24.266Z,67.19
2017-03-11T01:52:04.994Z,67.25
2017-03-11T01:52:45.654Z,67
2017-03-11T01:53:26.265Z,67.57
2017-03-11T01:54:06.880Z,67.38
2017-03-11T01:54:47.591Z,67.57
2017-03-11T01:55:28.235Z,67.38
2017-03-11T01:56:08.931Z,67.66
2017-03-11T01:56:49.623Z,67.47
2017-03-11T01:57:30.240Z,67.47
2017-03-11T01:58:10.918Z,67.47
2017-03-11T01:58:51.772Z,67.28
2017-03-11T01:59:32.329Z,67.19
2017-03-11T02:00:13.031Z,67.38
2017-03-11T02:00:53.687Z,67.28
2017-03-11T02:01:34.350Z,67.09
2017-03-11T02:02:15.013Z,66.8
2017-03-11T02:02:55.685Z,67
2017-03-11T02:03:36.312Z,67.28
2017-03-11T02:04:16.936Z,67.19
2017-03-11T02:04:57.575Z,67.28
2017-03-11T02:05:38.225Z,67.34
2017-03-11T02:06:18.846Z,67.28
2017-03-11T02:06:59.509Z,67.19
2017-03-11T02:07:40.198Z,67.25
2017-03-11T02:08:20.882Z,67.15
2017-03-11T02:09:01.549Z,67.15
2017-03-11T02:09:42.214Z,67.44
2017-03-11T02:10:22.835Z,67.34
2017-03-11T02:11:03.521Z,67.63
2017-03-11T02:11:44.225Z,67.53
2017-03-11T02:12:24.953Z,67.63
2017-03-11T02:13:05.669Z,67.91
2017-03-11T02:13:46.409Z,67.63
2017-03-11T02:14:27.034Z,67.72
2017-03-11T02:15:07.717Z,67.72
2017-03-11T02:15:48.336Z,67.72
2017-03-11T02:16:28.991Z,67.44
2017-03-11T02:17:09.627Z,67.53
2017-03-11T02:17:50.223Z,67.72
2017-03-11T02:18:30.864Z,67.91
2017-03-11T02:19:11.657Z,68.29
2017-03-11T02:19:52.353Z,67.91
2017-03-11T02:20:33.027Z,68.01
2017-03-11T02:21:13.635Z,67.63
2017-03-11T02:21:54.310Z,67.53
2017-03-11T02:22:34.962Z,68.19
2017-03-11T02:23:15.622Z,67.82
2017-03-11T02:23:56.334Z,67.82
2017-03-11T02:24:36.976Z,67.91
2017-03-11T02:25:17.639Z,68.1
2017-03-11T02:25:58.343Z,68.19
2017-03-11T02:26:39.042Z,67.91
2017-03-11T02:27:19.805Z,67.91
2017-03-11T02:28:00.440Z,67.82
2017-03-11T02:28:41.106Z,68.01
2017-03-11T02:29:21.784Z,68.29
2017-03-11T02:30:02.432Z,68.39
2017-03-11T02:30:43.101Z,68.39
2017-03-11T02:31:23.748Z,68.67
2017-03-11T02:32:04.371Z,68.58
2017-03-11T02:32:45.003Z,68.77
2017-03-11T02:33:25.735Z,68.29
2017-03-11T02:34:06.391Z,68.77
2017-03-11T02:34:47.022Z,68.58
2017-03-11T02:35:27.682Z,68.77
2017-03-11T02:36:08.361Z,68.67
2017-03-11T02:36:49.052Z,68.77
2017-03-11T02:37:29.631Z,68.67
2017-03-11T02:38:10.268Z,68.77
2017-03-11T02:38:50.905Z,68.58
2017-03-11T02:39:31.592Z,68.58
2017-03-11T02:40:12.277Z,68.58
2017-03-11T02:40:52.859Z,68.58
2017-03-11T02:41:33.523Z,68.58
2017-03-11T02:42:14.166Z,68.48
2017-03-11T02:42:54.870Z,68.48
2017-03-11T02:43:35.504Z,68.67
2017-03-11T02:44:16.142Z,68.77
2017-03-11T02:44:56.795Z,68.48
2017-03-11T02:45:37.469Z,68.67
2017-03-11T02:46:18.150Z,68.58
2017-03-11T02:46:58.753Z,68.58
2017-03-11T02:47:39.408Z,68.48
2017-03-11T02:48:20.076Z,68.77
2017-03-11T02:49:00.778Z,69.05
2017-03-11T02:49:41.464Z,68.96
2017-03-11T02:50:22.144Z,69.05
2017-03-11T02:51:02.809Z,68.77
2017-03-11T02:51:43.454Z,68.67
2017-03-11T02:52:24.207Z,68.48
2017-03-11T02:53:04.820Z,68.77
2017-03-11T02:53:45.475Z,68.67
2017-03-11T02:54:26.193Z,68.67
2017-03-11T02:55:06.925Z,68.67
2017-03-11T02:55:47.789Z,68.77
2017-03-11T02:56:28.658Z,68.58
2017-03-11T02:57:09.296Z,68.58
2017-03-11T02:57:50.045Z,68.1
2017-03-11T02:58:30.661Z,68.39
2017-03-11T02:59:11.330Z,68.19
2017-03-11T02:59:51.974Z,68.48
2017-03-11T03:00:32.709Z,68.58
2017-03-11T03:01:13.445Z,68.67
2017-03-11T03:01:54.106Z,68.77
2017-03-11T03:02:34.775Z,68.77
2017-03-11T03:03:15.422Z,68.67
2017-03-11T03:03:56.078Z,68.48
2017-03-11T03:04:36.778Z,68.58
2017-03-11T03:05:17.498Z,68.67
2017-03-11T03:05:58.227Z,68.67
2017-03-11T03:06:38.987Z,68.48
2017-03-11T03:07:19.690Z,68.48
2017-03-11T03:08:00.374Z,68.29
2017-03-11T03:08:41.049Z,68.67
2017-03-11T03:09:21.716Z,68.77
2017-03-11T03:10:02.364Z,68.86
2017-03-11T03:10:43.128Z,68.58
2017-03-11T03:11:23.668Z,68.58
2017-03-11T03:12:04.347Z,68.48
2017-03-11T03:12:45.072Z,68.58
2017-03-11T03:13:25.689Z,68.48
2017-03-11T03:14:06.378Z,68.48
2017-03-11T03:14:46.990Z,68.67
2017-03-11T03:15:27.619Z,68.77
2017-03-11T03:16:08.279Z,68.67
2017-03-11T03:16:48.933Z,68.58
2017-03-11T03:17:29.563Z,69.05
2017-03-11T03:18:10.200Z,69.43
2017-03-11T03:18:50.849Z,69.15
2017-03-11T03:19:31.492Z,69.43
2017-03-11T03:20:12.212Z,68.86
2017-03-11T03:20:52.861Z,68.77
2017-03-11T03:21:33.515Z,68.67
2017-03-11T03:22:14.170Z,68.67
2017-03-11T03:22:54.866Z,68.86
2017-03-11T03:23:35.605Z,68.48
2017-03-11T03:24:16.339Z,68.58
2017-03-11T03:24:56.992Z,68.48
2017-03-11T03:25:37.652Z,68.48
2017-03-11T03:26:18.397Z,68.67
2017-03-11T03:26:59.055Z,68.77
2017-03-11T03:27:39.691Z,68.48
2017-03-11T03:28:20.357Z,68.67
2017-03-11T03:29:01.018Z,68.48
2017-03-11T03:29:41.664Z,68.48
2017-03-11T03:30:22.319Z,68.67
2017-03-11T03:31:02.978Z,68.67
2017-03-11T03:31:43.631Z,68.67
2017-03-11T03:32:24.300Z,68.77
2017-03-11T03:33:04.923Z,68.48
2017-03-11T03:33:45.591Z,68.48
2017-03-11T03:34:26.284Z,68.58
2017-03-11T03:35:07.019Z,68.58
2017-03-11T03:35:47.678Z,68.58
2017-03-11T03:36:28.350Z,68.58
2017-03-11T03:37:08.973Z,68.58
2017-03-11T03:37:49.634Z,68.67
2017-03-11T03:38:30.249Z,68.67
2017-03-11T03:39:10.919Z,68.48
2017-03-11T03:39:51.530Z,68.48
2017-03-11T03:40:32.155Z,68.48
2017-03-11T03:41:12.811Z,68.77
2017-03-11T03:41:53.449Z,68.77
2017-03-11T03:42:34.107Z,68.58
2017-03-11T03:43:14.842Z,68.58
2017-03-11T03:43:55.495Z,68.39
2017-03-11T03:44:36.117Z,68.58
2017-03-11T03:45:16.827Z,68.77
2017-03-11T03:45:57.496Z,69.24
2017-03-11T03:46:38.200Z,68.77
2017-03-11T03:47:18.853Z,68.96
2017-03-11T03:47:59.491Z,69.05
2017-03-11T03:48:40.193Z,69.05
2017-03-11T03:49:20.845Z,69.34
2017-03-11T03:50:01.484Z,69.43
2017-03-11T03:50:42.151Z,69.15
2017-03-11T03:51:22.804Z,69.11
2017-03-11T03:52:03.451Z,69.34
2017-03-11T03:52:44.108Z,69.15
2017-03-11T03:53:24.809Z,69.24
2017-03-11T03:54:05.493Z,69.3
2017-03-11T03:54:46.176Z,69.3
2017-03-11T03:55:26.865Z,69.34
2017-03-11T03:56:07.512Z,69.21
2017-03-11T03:56:48.133Z,69.11
2017-03-11T03:57:28.792Z,69.21
2017-03-11T03:58:09.463Z,69.11
2017-03-11T03:58:50.116Z,69.02
2017-03-11T03:59:30.754Z,69.78
2017-03-11T04:00:11.426Z,69.59
2017-03-11T04:00:52.094Z,69.49
2017-03-11T04:01:32.750Z,69.68
2017-03-11T04:02:13.385Z,69.49
2017-03-11T04:02:54.142Z,69.49
2017-03-11T04:03:34.793Z,69.4
2017-03-11T04:04:15.506Z,69.4
2017-03-11T04:04:56.153Z,69.21
2017-03-11T04:05:36.906Z,69.4
2017-03-11T04:06:17.569Z,70.15
2017-03-11T04:06:58.244Z,69.87
2017-03-11T04:07:38.881Z,69.78
2017-03-11T04:08:19.536Z,69.87
2017-03-11T04:09:00.192Z,69.78
2017-03-11T04:09:40.846Z,69.78
2017-03-11T04:10:21.529Z,69.87
2017-03-11T04:11:02.186Z,70.15
2017-03-11T04:11:42.811Z,70.15
2017-03-11T04:12:23.480Z,70.15
2017-03-11T04:13:04.174Z,70.15
2017-03-11T04:13:44.818Z,69.96
2017-03-11T04:14:25.522Z,70.25
2017-03-11T04:15:06.183Z,70.25
2017-03-11T04:15:46.772Z,69.87
2017-03-11T04:16:27.431Z,70.06
2017-03-11T04:17:08.073Z,69.78
2017-03-11T04:17:48.748Z,69.78
2017-03-11T04:18:29.415Z,69.96
2017-03-11T04:19:10.115Z,69.96
2017-03-11T04:19:50.748Z,69.87
2017-03-11T04:20:31.474Z,69.21
2017-03-11T04:21:12.079Z,69.49
2017-03-11T04:21:52.744Z,69.3
2017-03-11T04:22:33.369Z,69.3
2017-03-11T04:23:14.043Z,69.59
2017-03-11T04:23:54.685Z,69.49
2017-03-11T04:24:35.343Z,69.59
2017-03-11T04:25:16.025Z,69.11
2017-03-11T04:25:56.832Z,69.21
2017-03-11T04:26:37.486Z,69.68
2017-03-11T04:27:18.154Z,69.49
2017-03-11T04:27:58.801Z,69.24
2017-03-11T04:28:39.433Z,69.02
2017-03-11T04:29:20.065Z,69.3
2017-03-11T04:30:00.800Z,69.11
2017-03-11T04:30:41.463Z,69.3
2017-03-11T04:31:22.138Z,69.11
2017-03-11T04:32:02.784Z,69.21
2017-03-11T04:32:43.445Z,69.02
2017-03-11T04:33:24.091Z,69.68
2017-03-11T04:34:04.733Z,69.02
2017-03-11T04:34:45.406Z,69.21
2017-03-11T04:35:26.149Z,69.11
2017-03-11T04:36:06.792Z,69.11
2017-03-11T04:36:47.426Z,69.02
2017-03-11T04:37:28.083Z,69.49
2017-03-11T04:38:08.776Z,69.49
2017-03-11T04:38:49.406Z,69.59
2017-03-11T04:39:30.060Z,69.3
2017-03-11T04:40:10.813Z,69.21
2017-03-11T04:40:51.433Z,69.96
2017-03-11T04:41:32.088Z,69.87
2017-03-11T04:42:12.728Z,69.87
2017-03-11T04:42:53.428Z,70.06
2017-03-11T04:43:34.076Z,70.06
2017-03-11T04:44:14.749Z,69.68
2017-03-11T04:44:55.384Z,69.87
2017-03-11T04:45:36.021Z,69.87
2017-03-11T04:46:16.654Z,69.96
2017-03-11T04:46:57.347Z,69.87
2017-03-11T04:47:37.976Z,69.87
2017-03-11T04:48:18.632Z,70.35
2017-03-11T04:48:59.350Z,69.49
2017-03-11T04:49:40.036Z,69.21
2017-03-11T04:50:20.725Z,69.3
2017-03-11T04:51:01.402Z,69.59
2017-03-11T04:51:42.145Z,69.02
2017-03-11T04:52:22.724Z,69.68
2017-03-11T04:53:03.386Z,69.4
2017-03-11T04:53:44.036Z,69.49
2017-03-11T04:54:24.759Z,69.4
2017-03-11T04:55:05.497Z,69.68
2017-03-11T04:55:46.136Z,69.49
2017-03-11T04:56:26.781Z,69.49
2017-03-11T04:57:07.461Z,69.4
2017-03-11T04:57:48.128Z,69.68
2017-03-11T04:58:28.767Z,69.49
2017-03-11T04:59:09.413Z,69.02
2017-03-11T04:59:50.082Z,69.02
2017-03-11T05:00:30.753Z,69.68
2017-03-11T05:01:11.446Z,69.4
2017-03-11T05:01:52.112Z,69.3
2017-03-11T05:02:32.789Z,69.59
2017-03-11T05:03:13.460Z,70.06
2017-03-11T05:03:54.168Z,69.87
2017-03-11T05:04:34.836Z,69.96
2017-03-11T05:05:15.436Z,70.06
2017-03-11T05:05:56.100Z,69.96
2017-03-11T05:06:36.733Z,69.4
2017-03-11T05:07:17.392Z,69.3
2017-03-11T05:07:58.103Z,69.4
2017-03-11T05:08:38.738Z,69.68
2017-03-11T05:09:19.450Z,70.06
2017-03-11T05:10:00.102Z,69.87
2017-03-11T05:10:40.796Z,69.96
2017-03-11T05:11:21.461Z,69.78
2017-03-11T05:12:02.101Z,69.87
2017-03-11T05:12:42.790Z,69.87
2017-03-11T05:13:23.412Z,69.87
2017-03-11T05:14:04.097Z,69.87
2017-03-11T05:14:44.761Z,70.06
2017-03-11T05:15:25.413Z,69.21
2017-03-11T05:16:06.029Z,69.3
2017-03-11T05:16:46.691Z,69.21
2017-03-11T05:17:27.364Z,69.21
2017-03-11T05:18:07.989Z,69.49
2017-03-11T05:18:48.689Z,69.87
2017-03-11T05:19:29.393Z,69.87
2017-03-11T05:20:10.061Z,69.78
2017-03-11T05:20:50.706Z,69.87
2017-03-11T05:21:31.371Z,70.35
2017-03-11T05:22:11.992Z,69.96
2017-03-11T05:22:52.603Z,70.44
2017-03-11T05:23:33.315Z,70.54
2017-03-11T05:24:13.944Z,70.35
2017-03-11T05:24:54.582Z,70.82
2017-03-11T05:25:35.245Z,70.73
2017-03-11T05:26:15.910Z,70.25
2017-03-11T05:26:56.554Z,70.35
2017-03-11T05:27:37.199Z,70.25
2017-03-11T05:28:17.836Z,70.63
2017-03-11T05:28:58.503Z,70.63
2017-03-11T05:29:39.124Z,70.44
2017-03-11T05:30:19.756Z,71.11
2017-03-11T05:31:00.425Z,70.92
2017-03-11T05:31:41.042Z,71.17
2017-03-11T05:32:21.707Z,71.01
2017-03-11T05:33:02.337Z,71.39
2017-03-11T05:33:43.006Z,71.39
2017-03-11T05:34:23.679Z,71.39
2017-03-11T05:35:04.306Z,71.39
2017-03-11T05:35:44.962Z,71.3
2017-03-11T05:36:25.645Z,71.3
2017-03-11T05:37:06.290Z,71.3
2017-03-11T05:37:46.916Z,71.2
2017-03-11T05:38:27.558Z,71.39
2017-03-11T05:39:08.192Z,71.3
2017-03-11T05:39:48.846Z,71.39
2017-03-11T05:40:29.479Z,71.3
2017-03-11T05:41:10.118Z,71.39
2017-03-11T05:41:50.807Z,71.48
2017-03-11T05:42:31.429Z,71.3
2017-03-11T05:43:12.094Z,71.3
2017-03-11T05:43:52.744Z,70.92
2017-03-11T05:44:33.421Z,71.01
2017-03-11T05:45:14.101Z,71.01
2017-03-11T05:45:54.753Z,71.2
2017-03-11T05:46:35.388Z,70.73
2017-03-11T05:47:15.998Z,70.73
2017-03-11T05:47:56.718Z,70.92
2017-03-11T05:48:37.384Z,70.92
2017-03-11T05:49:18.021Z,71.11
2017-03-11T05:49:58.663Z,71.39
2017-03-11T05:50:39.344Z,71.3
2017-03-11T05:51:19.943Z,71.3
2017-03-11T05:52:00.586Z,71.2
2017-03-11T05:52:41.220Z,71.11
2017-03-11T05:53:21.847Z,71.11
2017-03-11T05:54:02.472Z,71.39
2017-03-11T05:54:43.096Z,71.2
2017-03-11T05:55:23.759Z,71.3
2017-03-11T05:56:04.474Z,71.39
2017-03-11T05:56:45.224Z,71.48
2017-03-11T05:57:29.212Z,71.48
2017-03-11T05:58:19.810Z,71.26
2017-03-11T05:59:09.863Z,71.36
2017-03-11T05:59:54.155Z,71.86
2017-03-11T06:00:37.732Z,71.92
2017-03-11T06:01:36.824Z,71.96
2017-03-11T06:02:31.506Z,72.4
2017-03-11T06:03:15.347Z,72.11
2017-03-11T06:03:56.945Z,72.02
2017-03-11T06:04:37.580Z,72.15
2017-03-11T06:05:18.267Z,72.44
2017-03-11T06:05:59.304Z,71.92
2017-03-11T06:06:40.252Z,71.83
2017-03-11T06:07:21.225Z,72.11
2017-03-11T06:08:01.841Z,71.96
2017-03-11T06:08:42.564Z,71.92
2017-03-11T06:09:23.436Z,71.67
2017-03-11T06:10:04.312Z,72.34
2017-03-11T06:10:45.197Z,72.11
2017-03-11T06:11:25.813Z,72.21
2017-03-11T06:12:06.568Z,71.92
2017-03-11T06:12:47.597Z,72.15
2017-03-11T06:13:28.555Z,72.11
2017-03-11T06:14:17.652Z,72.21
2017-03-11T06:15:06.753Z,72.3
2017-03-11T06:15:48.358Z,72.15
2017-03-11T06:16:29.647Z,72.11
2017-03-11T06:17:10.317Z,72.06
2017-03-11T06:17:51.054Z,72.4
2017-03-11T06:18:31.693Z,72.25
2017-03-11T06:19:12.360Z,72.44
2017-03-11T06:19:58.304Z,72.15
2017-03-11T06:20:41.292Z,72.4
2017-03-11T06:21:22.853Z,72.25
2017-03-11T06:22:10.603Z,72.44
2017-03-11T06:22:51.221Z,72.15
2017-03-11T06:23:32.053Z,72.34
2017-03-11T06:24:12.706Z,72.15
2017-03-11T06:24:53.387Z,72.15
2017-03-11T06:25:34.175Z,72.34
2017-03-11T06:26:14.815Z,72.15
2017-03-11T06:26:55.822Z,72.25
2017-03-11T06:27:36.480Z,72.06
2017-03-11T06:28:17.880Z,71.96
2017-03-11T06:29:01.773Z,72.72
2017-03-11T06:29:55.238Z,72.34
2017-03-11T06:30:46.871Z,72.44
2017-03-11T06:31:38.799Z,72.44
2017-03-11T06:32:27.867Z,72.25
2017-03-11T06:33:15.628Z,72.34
2017-03-11T06:33:56.289Z,72.34
2017-03-11T06:34:36.912Z,72.53
2017-03-11T06:35:17.547Z,72.34
2017-03-11T06:35:58.173Z,72.34
2017-03-11T06:36:38.795Z,72.34
2017-03-11T06:37:19.408Z,72.34
2017-03-11T06:38:00.985Z,72.06
2017-03-11T06:38:44.537Z,72.34
2017-03-11T06:39:25.788Z,72.25
2017-03-11T06:40:06.406Z,72.34
2017-03-11T06:40:47.063Z,72.34
2017-03-11T06:41:27.672Z,72.15
2017-03-11T06:42:08.300Z,72.34
2017-03-11T06:42:49.721Z,72.15
2017-03-11T06:43:30.351Z,72.34
2017-03-11T06:44:10.958Z,72.34
2017-03-11T06:44:51.562Z,72.25
2017-03-11T06:45:32.163Z,72.25
2017-03-11T06:46:12.781Z,72.15
2017-03-11T06:46:53.424Z,72.15
2017-03-11T06:47:34.021Z,72.34
2017-03-11T06:48:14.641Z,72.53
2017-03-11T06:48:55.337Z,72.53
2017-03-11T06:49:35.964Z,72.25
2017-03-11T06:50:16.579Z,72.25
2017-03-11T06:50:57.192Z,72.44
2017-03-11T06:51:37.828Z,71.86
2017-03-11T06:52:18.469Z,71.58
2017-03-11T06:52:59.135Z,71.77
2017-03-11T06:53:39.815Z,71.96
2017-03-11T06:54:20.482Z,72.06
2017-03-11T06:55:02.151Z,71.96
2017-03-11T06:55:42.815Z,72.25
2017-03-11T06:56:23.464Z,72.06
2017-03-11T06:57:04.064Z,71.77
2017-03-11T06:57:44.706Z,71.77
2017-03-11T06:58:25.337Z,71.86
2017-03-11T06:59:06.003Z,71.96
2017-03-11T06:59:46.630Z,71.96
2017-03-11T07:00:27.270Z,72.06
2017-03-11T07:01:07.898Z,71.86
2017-03-11T07:01:48.587Z,71.96
2017-03-11T07:02:29.227Z,71.77
2017-03-11T07:03:09.969Z,71.86
2017-03-11T07:03:50.736Z,71.96
2017-03-11T07:04:31.399Z,71.58
2017-03-11T07:05:12.017Z,71.77
2017-03-11T07:05:52.642Z,71.96
2017-03-11T07:06:33.265Z,71.58
2017-03-11T07:07:13.906Z,71.77
2017-03-11T07:07:54.495Z,71.86
2017-03-11T07:08:35.125Z,72.06
2017-03-11T07:09:15.988Z,71.96
2017-03-11T07:09:56.660Z,72.06
2017-03-11T07:10:37.416Z,71.86
2017-03-11T07:11:18.261Z,71.96
2017-03-11T07:11:59.331Z,71.86
2017-03-11T07:12:40.041Z,71.67
2017-03-11T07:13:20.749Z,71.96
2017-03-11T07:14:01.838Z,72.34
2017-03-11T07:14:42.809Z,72.15
2017-03-11T07:15:23.659Z,72.25
2017-03-11T07:16:04.607Z,72.34
2017-03-11T07:16:45.245Z,72.34
2017-03-11T07:17:25.868Z,72.25
2017-03-11T07:18:06.609Z,72.34
2017-03-11T07:18:47.224Z,72.15
2017-03-11T07:19:29.601Z,74.05
2017-03-11T07:20:11.339Z,78.7
2017-03-11T07:21:00.312Z,81.21
2017-03-11T07:21:42.853Z,81.21
2017-03-11T07:22:35.371Z,80.4
2017-03-11T07:23:18.559Z,79.73
2017-03-11T07:23:59.533Z,78.59
2017-03-11T07:24:40.803Z,76.92
2017-03-11T07:25:21.419Z,75.87
2017-03-11T07:26:02.072Z,74.54
2017-03-11T07:26:44.325Z,72.83
2017-03-11T07:27:30.507Z,72.01
2017-03-11T07:28:11.158Z,71.44
2017-03-11T07:28:51.881Z,70.58
2017-03-11T07:29:32.505Z,69.15
2017-03-11T07:30:13.150Z,67.16
2017-03-11T07:30:53.828Z,65.92
2017-03-11T07:31:34.416Z,64.4
2017-03-11T07:32:15.163Z,63.64
2017-03-11T07:32:55.812Z,64.31
2017-03-11T07:33:36.451Z,64.11
2017-03-11T07:34:17.131Z,64.08
2017-03-11T07:34:57.872Z,64.37
2017-03-11T07:35:38.501Z,64.27
2017-03-11T07:36:19.179Z,64.75
2017-03-11T07:36:59.920Z,65.41
2017-03-11T07:37:40.594Z,65.7
2017-03-11T07:38:21.198Z,65.99
2017-03-11T07:39:01.930Z,66.42
2017-03-11T07:39:42.569Z,65.95
2017-03-11T07:40:23.207Z,66.42
2017-03-11T07:41:03.923Z,66.9
2017-03-11T07:41:44.651Z,67.19
2017-03-11T07:42:25.306Z,67.19
2017-03-11T07:43:06.047Z,67
2017-03-11T07:43:46.773Z,67.57
2017-03-11T07:44:27.448Z,67.76
2017-03-11T07:45:08.094Z,67.57
2017-03-11T07:45:48.827Z,67.57
2017-03-11T07:46:29.520Z,67.66
2017-03-11T07:47:10.257Z,67.66
2017-03-11T07:47:50.957Z,67.76
2017-03-11T07:48:31.658Z,68.13
2017-03-11T07:49:12.325Z,67.85
2017-03-11T07:49:53.007Z,68.04
2017-03-11T07:50:33.583Z,68.04
2017-03-11T07:51:14.358Z,68.52
2017-03-11T07:51:55.039Z,68.61
2017-03-11T07:52:35.758Z,68.42
2017-03-11T07:53:16.442Z,68.52
2017-03-11T07:53:57.064Z,68.52
2017-03-11T07:54:37.756Z,68.8
2017-03-11T07:55:18.413Z,68.77
2017-03-11T07:55:59.264Z,68.71
2017-03-11T07:56:40.050Z,68.71
2017-03-11T07:57:20.615Z,68.8
2017-03-11T07:58:01.390Z,68.61
2017-03-11T07:58:42.092Z,69.09
2017-03-11T07:59:22.826Z,68.99
2017-03-11T08:00:03.465Z,69.18
2017-03-11T08:00:44.159Z,69.37
2017-03-11T08:01:24.901Z,68.8
2017-03-11T08:02:05.642Z,69.05
2017-03-11T08:02:46.363Z,69.37
2017-03-11T08:03:26.985Z,69.24
2017-03-11T08:04:07.898Z,69.27
2017-03-11T08:04:48.977Z,69.56
2017-03-11T08:05:33.776Z,69.56
2017-03-11T08:06:14.644Z,69.43
2017-03-11T08:06:55.379Z,70.04
2017-03-11T08:07:36.188Z,69.94
2017-03-11T08:08:16.861Z,70.04
2017-03-11T08:08:57.496Z,69.66
2017-03-11T08:09:38.195Z,69.75
2017-03-11T08:10:20.027Z,69.66
2017-03-11T08:11:02.418Z,69.46
2017-03-11T08:11:44.858Z,69.09
2017-03-11T08:12:25.548Z,68.8
2017-03-11T08:13:06.214Z,68.71
2017-03-11T08:13:46.872Z,68.61
2017-03-11T08:14:27.471Z,68.61
2017-03-11T08:15:08.344Z,68.61
2017-03-11T08:15:49.335Z,68.42
2017-03-11T08:16:31.306Z,68.71
2017-03-11T08:17:14.442Z,68.52
2017-03-11T08:17:55.115Z,68.42
2017-03-11T08:18:35.855Z,68.52
2017-03-11T08:19:16.494Z,68.61
2017-03-11T08:19:57.161Z,68.8
2017-03-11T08:20:37.978Z,68.61
2017-03-11T08:21:18.679Z,68.61
2017-03-11T08:21:59.477Z,68.13
2017-03-11T08:22:40.089Z,68.52
2017-03-11T08:23:20.776Z,68.61
2017-03-11T08:24:01.458Z,68.8
2017-03-11T08:24:42.158Z,68.23
2017-03-11T08:25:22.770Z,68.61
2017-03-11T08:26:03.359Z,68.8
2017-03-11T08:26:43.956Z,68.61
2017-03-11T08:27:24.591Z,68.71
2017-03-11T08:28:05.164Z,68.61
2017-03-11T08:28:45.775Z,68.61
2017-03-11T08:29:26.352Z,69.27
2017-03-11T08:30:07.085Z,68.71
2017-03-11T08:30:47.664Z,68.8
2017-03-11T08:31:28.250Z,68.8
2017-03-11T08:32:08.832Z,68.8
2017-03-11T08:32:49.556Z,68.71
2017-03-11T08:33:30.181Z,68.42
2017-03-11T08:34:10.831Z,68.61
2017-03-11T08:34:51.451Z,68.71
2017-03-11T08:35:32.036Z,68.71
2017-03-11T08:36:12.634Z,68.71
2017-03-11T08:36:53.234Z,68.9
2017-03-11T08:37:33.913Z,69.18
2017-03-11T08:38:14.537Z,69.18
2017-03-11T08:38:55.228Z,69.18
2017-03-11T08:39:35.845Z,69.66
2017-03-11T08:40:16.447Z,69.46
2017-03-11T08:40:57.094Z,69.46
2017-03-11T08:41:37.661Z,69.94
2017-03-11T08:42:18.317Z,70.04
2017-03-11T08:42:58.960Z,69.94
2017-03-11T08:43:39.568Z,69.75
2017-03-11T08:44:20.224Z,70.04
2017-03-11T08:45:00.909Z,68.99
2017-03-11T08:45:41.504Z,69.18
2017-03-11T08:46:22.122Z,68.9
2017-03-11T08:47:02.701Z,68.42
2017-03-11T08:47:43.716Z,68.52
2017-03-11T08:48:24.112Z,68.61
2017-03-11T08:49:04.747Z,68.61